createdAt,value
2019-03-09T00:01:27.944Z,8.12
2019-03-09T00:03:57.385Z,8.17
2019-03-09T00:06:26.790Z,8.20
2019-03-09T00:08:58.377Z,8.11
2019-03-09T00:11:27.943Z,8.18
2019-03-09T00:13:57.290Z,8.11
2019-03-09T00:16:29.581Z,8.11
2019-03-09T00:18:58.943Z,8.18
2019-03-09T00:21:28.179Z,8.22
2019-03-09T00:24:17.509Z,8.20
2019-03-09T00:27:11.972Z,8.16
2019-03-09T00:29:58.913Z,8.12
2019-03-09T00:32:28.413Z,8.15
2019-03-09T00:34:57.721Z,8.14
2019-03-09T00:37:27.066Z,8.16
2019-03-09T00:39:56.259Z,8.21
2019-03-09T00:42:25.595Z,8.21
2019-03-09T00:44:55.096Z,8.16
2019-03-09T00:47:24.556Z,8.14
2019-03-09T00:49:54.101Z,8.13
2019-03-09T00:52:23.705Z,8.14
2019-03-09T00:54:57.445Z,8.12
2019-03-09T00:57:26.884Z,8.14
2019-03-09T00:59:58.051Z,8.12
2019-03-09T01:02:27.389Z,8.16
2019-03-09T01:04:56.878Z,8.14
2019-03-09T01:07:26.536Z,8.09
2019-03-09T01:09:55.816Z,8.12
2019-03-09T01:12:28.328Z,8.10
2019-03-09T01:14:57.836Z,8.11
2019-03-09T01:17:27.299Z,8.11
2019-03-09T01:19:56.804Z,8.10
2019-03-09T01:22:25.990Z,8.14
2019-03-09T01:24:55.218Z,8.11
2019-03-09T01:27:24.390Z,8.10
2019-03-09T01:29:53.749Z,8.12
2019-03-09T01:32:22.944Z,8.15
2019-03-09T01:34:52.192Z,8.13
2019-03-09T01:37:21.702Z,8.12
2019-03-09T01:39:50.928Z,8.05
2019-03-09T01:42:20.404Z,8.07
2019-03-09T01:44:49.656Z,8.07
2019-03-09T01:47:18.868Z,8.07
2019-03-09T01:49:48.103Z,8.02
2019-03-09T01:52:17.298Z,7.98
2019-03-09T01:54:46.523Z,8.02
2019-03-09T01:57:15.695Z,7.94
2019-03-09T01:59:44.921Z,7.91
2019-03-09T02:02:14.093Z,7.88
2019-03-09T02:04:43.876Z,7.86
2019-03-09T02:07:13.052Z,7.91
2019-03-09T02:09:42.239Z,7.89
2019-03-09T02:12:11.529Z,7.87
2019-03-09T02:14:40.708Z,7.98
2019-03-09T02:17:10.218Z,7.89
2019-03-09T02:19:39.676Z,7.85
2019-03-09T02:22:08.920Z,7.86
2019-03-09T02:24:38.108Z,7.85
2019-03-09T02:27:07.379Z,7.81
2019-03-09T02:29:36.561Z,7.92
2019-03-09T02:32:05.739Z,7.95
2019-03-09T02:34:34.973Z,7.98
2019-03-09T02:37:04.150Z,7.94
2019-03-09T02:39:44.035Z,8.00
2019-03-09T02:42:13.229Z,7.95
2019-03-09T02:44:42.459Z,7.97
2019-03-09T02:47:11.633Z,7.99
2019-03-09T02:49:40.872Z,7.98
2019-03-09T02:52:10.077Z,8.08
2019-03-09T02:54:39.323Z,8.06
2019-03-09T02:57:08.510Z,7.99
2019-03-09T02:59:38.631Z,7.94
2019-03-09T03:02:14.645Z,7.95
2019-03-09T03:04:44.133Z,7.86
2019-03-09T03:07:13.299Z,7.88
2019-03-09T03:09:42.542Z,7.87
2019-03-09T03:12:11.772Z,7.93
2019-03-09T03:14:41.015Z,7.84
2019-03-09T03:17:10.188Z,7.91
2019-03-09T03:19:39.426Z,7.96
2019-03-09T03:22:08.629Z,8.02
2019-03-09T03:24:37.852Z,8.05
2019-03-09T03:27:07.049Z,8.04
2019-03-09T03:29:36.295Z,8.03
2019-03-09T03:32:05.478Z,7.91
2019-03-09T03:34:34.655Z,7.94
2019-03-09T03:37:03.943Z,7.92
2019-03-09T03:39:33.104Z,7.94
2019-03-09T03:42:02.349Z,7.85
2019-03-09T03:44:33.170Z,7.90
2019-03-09T03:47:02.405Z,7.89
2019-03-09T03:49:31.580Z,7.93
2019-03-09T03:52:00.863Z,7.95
2019-03-09T03:54:30.036Z,7.89
2019-03-09T03:57:00.228Z,7.94
2019-03-09T03:59:29.407Z,7.88
2019-03-09T04:01:58.580Z,7.91
2019-03-09T04:04:27.811Z,7.86
2019-03-09T04:06:57.094Z,7.86
2019-03-09T04:09:26.736Z,7.89
2019-03-09T04:11:55.956Z,7.93
2019-03-09T04:14:25.185Z,7.87
2019-03-09T04:16:54.366Z,7.85
2019-03-09T04:19:23.603Z,7.87
2019-03-09T04:21:52.773Z,7.85
2019-03-09T04:24:22.004Z,7.86
2019-03-09T04:26:51.165Z,7.83
2019-03-09T04:29:20.410Z,7.85
2019-03-09T04:31:49.599Z,7.85
2019-03-09T04:34:18.827Z,7.85
2019-03-09T04:36:49.720Z,7.92
2019-03-09T04:39:18.942Z,7.91
2019-03-09T04:41:53.259Z,7.87
2019-03-09T04:44:22.498Z,7.85
2019-03-09T04:46:51.669Z,7.79
2019-03-09T04:49:20.904Z,7.77
2019-03-09T04:51:50.097Z,7.70
2019-03-09T04:54:19.398Z,7.71
2019-03-09T04:56:48.630Z,7.71
2019-03-09T04:59:17.818Z,7.64
2019-03-09T05:01:47.041Z,7.69
2019-03-09T05:04:41.330Z,7.78
2019-03-09T05:07:11.326Z,7.74
2019-03-09T05:10:01.435Z,7.76
2019-03-09T05:12:31.047Z,7.74
2019-03-09T05:15:00.316Z,7.75
2019-03-09T05:17:29.536Z,7.74
2019-03-09T05:19:58.968Z,7.79
2019-03-09T05:22:28.478Z,7.76
2019-03-09T05:24:57.666Z,7.76
2019-03-09T05:27:26.884Z,7.79
2019-03-09T05:29:56.074Z,7.81
2019-03-09T05:32:25.298Z,7.80
2019-03-09T05:34:54.473Z,7.85
2019-03-09T05:37:23.707Z,7.77
2019-03-09T05:39:52.882Z,7.82
2019-03-09T05:42:22.141Z,7.81
2019-03-09T05:44:51.327Z,7.81
2019-03-09T05:47:20.523Z,7.83
2019-03-09T05:49:49.959Z,7.87
2019-03-09T05:52:49.108Z,7.91
2019-03-09T05:55:19.777Z,7.98
2019-03-09T05:57:49.253Z,7.99
2019-03-09T06:00:18.548Z,7.90
2019-03-09T06:02:47.723Z,7.91
2019-03-09T06:06:10.077Z,7.90
2019-03-09T06:08:39.329Z,7.96
2019-03-09T06:11:08.581Z,8.03
2019-03-09T06:13:37.817Z,7.99
2019-03-09T06:16:07.407Z,8.10
2019-03-09T06:18:36.644Z,8.14
2019-03-09T06:21:05.857Z,8.19
2019-03-09T06:23:35.191Z,8.21
2019-03-09T06:26:04.494Z,8.26
2019-03-09T06:28:33.664Z,8.32
2019-03-09T06:31:02.913Z,8.34
2019-03-09T06:33:33.484Z,8.33
2019-03-09T06:36:52.755Z,8.33
2019-03-09T06:39:33.815Z,8.35
2019-03-09T06:42:12.445Z,8.43
2019-03-09T06:44:41.629Z,8.53
2019-03-09T06:47:10.878Z,8.56
2019-03-09T06:49:40.078Z,8.56
2019-03-09T06:52:09.336Z,8.59
2019-03-09T06:54:38.508Z,8.65
2019-03-09T06:57:13.813Z,8.67
2019-03-09T06:59:38.640Z,8.72
2019-03-09T07:02:07.822Z,8.83
2019-03-09T07:04:37.050Z,8.89
2019-03-09T07:07:06.246Z,8.91
2019-03-09T07:09:35.488Z,8.97
2019-03-09T07:12:04.730Z,8.94
2019-03-09T07:15:16.840Z,8.98
2019-03-09T07:17:46.159Z,8.96
2019-03-09T07:20:15.654Z,8.96
2019-03-09T07:22:44.835Z,8.94
2019-03-09T07:25:14.185Z,8.89
2019-03-09T07:27:43.386Z,8.90
2019-03-09T07:30:15.109Z,8.87
2019-03-09T07:32:44.294Z,8.57
2019-03-09T07:35:13.542Z,8.34
2019-03-09T07:37:42.713Z,8.27
2019-03-09T07:40:12.064Z,8.14
2019-03-09T07:42:41.255Z,8.07
2019-03-09T07:45:12.240Z,8.10
2019-03-09T07:47:41.433Z,8.06
2019-03-09T07:50:11.830Z,8.15
2019-03-09T07:52:40.999Z,8.15
2019-03-09T07:55:14.252Z,8.15
2019-03-09T07:57:43.593Z,8.14
2019-03-09T08:00:14.692Z,8.15
2019-03-09T08:02:43.939Z,8.14
2019-03-09T08:05:13.336Z,8.26
2019-03-09T08:07:42.858Z,8.29
2019-03-09T08:10:16.574Z,8.33
2019-03-09T08:12:45.840Z,8.37
2019-03-09T08:15:16.258Z,8.44
2019-03-09T08:17:45.614Z,8.50
2019-03-09T08:20:15.140Z,8.55
2019-03-09T08:22:44.499Z,8.54
2019-03-09T08:25:14.291Z,8.57
2019-03-09T08:27:43.563Z,8.67
2019-03-09T08:30:17.772Z,8.74
2019-03-09T08:32:47.080Z,8.75
2019-03-09T08:35:17.695Z,8.79
2019-03-09T08:37:46.987Z,8.77
2019-03-09T08:40:16.560Z,8.80
2019-03-09T08:42:45.747Z,8.85
2019-03-09T08:45:16.764Z,8.98
2019-03-09T08:47:52.216Z,9.07
2019-03-09T08:50:18.535Z,9.07
2019-03-09T08:52:47.721Z,9.05
2019-03-09T08:55:18.091Z,9.13
2019-03-09T08:57:47.546Z,9.17
2019-03-09T09:00:19.231Z,9.18
2019-03-09T09:02:48.411Z,9.22
2019-03-09T09:05:17.648Z,9.24
2019-03-09T09:07:46.833Z,9.29
2019-03-09T09:10:16.187Z,9.36
2019-03-09T09:12:45.822Z,9.45
2019-03-09T09:15:15.298Z,9.35
2019-03-09T09:17:44.574Z,9.38
2019-03-09T09:20:15.777Z,9.48
2019-03-09T09:22:45.010Z,9.52
2019-03-09T09:25:14.477Z,9.58
2019-03-09T09:27:43.708Z,9.62
2019-03-09T09:30:23.925Z,9.73
2019-03-09T09:32:53.174Z,9.69
2019-03-09T09:35:22.818Z,9.76
2019-03-09T09:37:52.287Z,9.83
2019-03-09T09:40:22.677Z,9.86
2019-03-09T09:42:52.664Z,9.82
2019-03-09T09:45:22.552Z,9.79
2019-03-09T09:47:52.651Z,9.86
2019-03-09T09:50:23.337Z,9.93
2019-03-09T09:52:56.521Z,9.97
2019-03-09T09:55:26.648Z,10.01
2019-03-09T09:57:56.301Z,9.96
2019-03-09T10:00:26.199Z,10.04
2019-03-09T10:02:55.412Z,10.01
2019-03-09T10:05:25.136Z,10.07
2019-03-09T10:07:54.326Z,10.15
2019-03-09T10:10:29.739Z,10.22
2019-03-09T10:12:58.881Z,10.21
2019-03-09T10:15:34.639Z,10.38
2019-03-09T10:18:07.673Z,10.57
2019-03-09T10:20:37.328Z,10.57
2019-03-09T10:23:06.534Z,10.61
2019-03-09T10:25:35.831Z,10.57
2019-03-09T10:28:05.035Z,10.71
2019-03-09T10:30:34.248Z,10.56
2019-03-09T10:33:03.505Z,10.70
2019-03-09T10:35:32.734Z,10.75
2019-03-09T10:38:01.976Z,10.66
2019-03-09T10:40:31.165Z,10.60
2019-03-09T10:43:00.536Z,10.57
2019-03-09T10:45:29.728Z,10.57
2019-03-09T10:47:59.042Z,10.66
2019-03-09T10:50:28.639Z,10.72
2019-03-09T10:52:57.897Z,10.70
2019-03-09T10:55:27.152Z,10.57
2019-03-09T10:57:59.479Z,10.55
2019-03-09T11:00:33.098Z,10.39
2019-03-09T11:03:02.321Z,10.36
2019-03-09T11:05:31.779Z,10.39
2019-03-09T11:08:00.999Z,10.36
2019-03-09T11:10:30.233Z,10.41
2019-03-09T11:12:59.499Z,10.46
2019-03-09T11:15:29.891Z,10.48
2019-03-09T11:17:59.048Z,10.47
2019-03-09T11:20:28.414Z,10.53
2019-03-09T11:22:57.735Z,10.55
2019-03-09T11:25:27.048Z,10.58
2019-03-09T11:27:57.750Z,10.59
2019-03-09T11:30:27.200Z,10.61
2019-03-09T11:32:56.484Z,10.60
2019-03-09T11:35:26.053Z,10.61
2019-03-09T11:37:55.516Z,10.63
2019-03-09T11:40:24.848Z,10.77
2019-03-09T11:42:54.260Z,10.84
2019-03-09T11:45:23.709Z,10.88
2019-03-09T11:47:54.186Z,10.84
2019-03-09T11:50:23.372Z,10.90
2019-03-09T11:52:52.688Z,11.05
2019-03-09T11:55:21.833Z,11.04
2019-03-09T11:57:51.389Z,11.06
2019-03-09T12:00:26.825Z,11.08
2019-03-09T12:02:56.364Z,11.05
2019-03-09T12:05:25.584Z,11.09
2019-03-09T12:07:57.619Z,11.04
2019-03-09T12:10:26.898Z,11.02
2019-03-09T12:12:56.306Z,11.06
2019-03-09T12:15:27.291Z,11.09
2019-03-09T12:17:58.339Z,11.25
2019-03-09T12:20:29.429Z,11.36
2019-03-09T12:23:10.838Z,11.39
2019-03-09T12:25:40.073Z,11.51
2019-03-09T12:28:12.093Z,11.42
2019-03-09T12:30:41.488Z,11.46
2019-03-09T12:33:10.931Z,11.50
2019-03-09T12:35:40.186Z,11.46
2019-03-09T12:38:09.409Z,11.56
2019-03-09T12:40:38.689Z,11.73
2019-03-09T12:43:07.882Z,11.69
2019-03-09T12:45:37.160Z,11.73
2019-03-09T12:48:06.357Z,11.79
2019-03-09T12:50:35.684Z,11.72
2019-03-09T12:53:04.904Z,11.81
2019-03-09T12:55:34.090Z,11.80
2019-03-09T12:58:03.329Z,11.81
2019-03-09T13:00:32.568Z,11.80
2019-03-09T13:03:01.765Z,11.95
2019-03-09T13:05:31.132Z,11.97
2019-03-09T13:08:00.426Z,12.03
2019-03-09T13:10:29.695Z,12.15
2019-03-09T13:12:59.008Z,12.10
2019-03-09T13:15:28.245Z,12.21
2019-03-09T13:17:57.480Z,12.26
2019-03-09T13:20:26.677Z,12.28
2019-03-09T13:22:55.935Z,12.29
2019-03-09T13:25:25.120Z,12.18
2019-03-09T13:27:54.614Z,12.23
2019-03-09T13:30:23.864Z,12.21
2019-03-09T13:32:53.152Z,12.25
2019-03-09T13:35:23.568Z,11.99
2019-03-09T13:37:52.801Z,11.97
2019-03-09T13:40:22.081Z,11.98
2019-03-09T13:42:51.351Z,12.02
2019-03-09T13:45:20.885Z,12.00
2019-03-09T13:47:50.117Z,12.00
2019-03-09T13:50:19.347Z,11.93
2019-03-09T13:52:48.611Z,11.91
2019-03-09T13:55:17.867Z,11.86
2019-03-09T13:57:47.098Z,11.89
2019-03-09T14:00:16.444Z,11.86
2019-03-09T14:02:45.681Z,11.92
2019-03-09T14:05:15.257Z,11.78
2019-03-09T14:07:44.453Z,11.76
2019-03-09T14:10:13.781Z,11.75
2019-03-09T14:12:43.022Z,11.76
2019-03-09T14:15:13.698Z,11.70
2019-03-09T14:17:42.951Z,11.75
2019-03-09T14:20:12.231Z,11.72
2019-03-09T14:22:41.704Z,11.72
2019-03-09T14:25:11.144Z,11.66
2019-03-09T14:27:40.360Z,11.66
2019-03-09T14:30:11.532Z,11.60
2019-03-09T14:32:40.746Z,11.56
2019-03-09T14:35:10.010Z,11.50
2019-03-09T14:37:39.832Z,11.47
2019-03-09T14:40:09.747Z,11.41
2019-03-09T14:42:39.306Z,11.44
2019-03-09T14:45:11.734Z,11.50
2019-03-09T14:47:40.967Z,11.47
2019-03-09T14:50:10.384Z,11.41
2019-03-09T14:52:39.925Z,11.36
2019-03-09T14:55:09.176Z,11.33
2019-03-09T14:57:38.434Z,11.34
2019-03-09T15:00:10.877Z,11.33
2019-03-09T15:02:42.282Z,11.32
2019-03-09T15:05:11.572Z,11.38
2019-03-09T15:07:41.124Z,11.42
2019-03-09T15:10:14.695Z,11.42
2019-03-09T15:12:44.048Z,11.48
2019-03-09T15:15:15.754Z,11.44
2019-03-09T15:17:44.733Z,11.38
2019-03-09T15:20:14.763Z,11.35
2019-03-09T15:22:44.085Z,11.36
2019-03-09T15:25:13.497Z,11.40
2019-03-09T15:27:42.999Z,11.47
2019-03-09T15:30:13.810Z,11.47
2019-03-09T15:32:45.067Z,11.45
2019-03-09T15:35:16.205Z,11.32
2019-03-09T15:37:45.441Z,11.31
2019-03-09T15:40:19.223Z,11.29
2019-03-09T15:42:48.482Z,11.28
2019-03-09T15:45:19.631Z,11.29
2019-03-09T15:47:49.373Z,11.30
2019-03-09T15:50:21.577Z,11.30
2019-03-09T15:52:50.906Z,11.27
2019-03-09T15:55:20.219Z,11.26
2019-03-09T15:57:49.529Z,11.24
2019-03-09T16:00:19.720Z,11.18
2019-03-09T16:02:57.753Z,11.10
2019-03-09T16:05:34.390Z,11.06
2019-03-09T16:08:03.556Z,10.93
2019-03-09T16:10:32.783Z,10.73
2019-03-09T16:13:02.041Z,10.62
2019-03-09T16:15:32.532Z,10.51
2019-03-09T16:18:01.657Z,10.53
2019-03-09T16:20:31.306Z,10.50
2019-03-09T16:23:03.549Z,10.50
2019-03-09T16:25:32.839Z,10.49
2019-03-09T16:28:02.056Z,10.47
2019-03-09T16:30:31.324Z,10.46
2019-03-09T16:33:00.663Z,10.49
2019-03-09T16:35:29.908Z,10.50
2019-03-09T16:37:59.303Z,10.48
2019-03-09T16:40:28.896Z,10.44
2019-03-09T16:43:00.464Z,10.40
2019-03-09T16:45:30.075Z,10.39
2019-03-09T16:47:59.620Z,10.39
2019-03-09T16:50:31.819Z,10.43
2019-03-09T16:53:04.139Z,10.42
2019-03-09T16:55:36.136Z,10.47
2019-03-09T16:58:05.377Z,10.39
2019-03-09T17:00:34.578Z,10.37
2019-03-09T17:03:03.849Z,10.37
2019-03-09T17:05:33.033Z,10.39
2019-03-09T17:08:03.204Z,10.38
2019-03-09T17:10:32.623Z,10.40
2019-03-09T17:13:03.210Z,10.40
2019-03-09T17:15:32.590Z,10.38
2019-03-09T17:18:02.148Z,10.41
2019-03-09T17:20:31.371Z,10.41
2019-03-09T17:23:01.097Z,10.42
2019-03-09T17:25:30.278Z,10.43
2019-03-09T17:27:59.811Z,10.44
2019-03-09T17:30:28.994Z,10.48
2019-03-09T17:32:58.504Z,10.45
2019-03-09T17:35:32.861Z,10.44
2019-03-09T17:38:02.298Z,10.41
2019-03-09T17:40:31.498Z,10.42
2019-03-09T17:43:00.681Z,10.37
2019-03-09T17:45:30.027Z,10.35
2019-03-09T17:47:59.483Z,10.40
2019-03-09T17:50:28.905Z,10.40
2019-03-09T17:52:58.201Z,10.41
2019-03-09T17:55:27.491Z,10.41
2019-03-09T17:57:56.779Z,10.42
2019-03-09T18:00:26.729Z,10.44
2019-03-09T18:02:56.404Z,10.44
2019-03-09T18:05:25.716Z,10.50
2019-03-09T18:07:55.495Z,10.49
2019-03-09T18:10:29.193Z,10.47
2019-03-09T18:12:58.448Z,10.48
2019-03-09T18:15:27.758Z,10.48
2019-03-09T18:17:56.915Z,10.42
2019-03-09T18:20:26.424Z,10.42
2019-03-09T18:22:55.611Z,10.44
2019-03-09T18:25:24.849Z,10.44
2019-03-09T18:27:54.092Z,10.39
2019-03-09T18:30:23.373Z,10.37
2019-03-09T18:32:52.572Z,10.41
2019-03-09T18:35:21.818Z,10.43
2019-03-09T18:37:51.517Z,10.35
2019-03-09T18:40:21.088Z,10.44
2019-03-09T18:42:50.358Z,10.46
2019-03-09T18:45:19.667Z,10.46
2019-03-09T18:47:49.153Z,10.39
2019-03-09T18:50:18.776Z,10.37
2019-03-09T18:52:48.583Z,10.37
2019-03-09T18:55:17.821Z,10.39
2019-03-09T18:57:47.079Z,10.40
2019-03-09T19:00:17.664Z,10.42
2019-03-09T19:02:47.357Z,10.44
2019-03-09T19:05:16.712Z,10.43
2019-03-09T19:07:46.522Z,10.43
2019-03-09T19:10:15.203Z,10.46
2019-03-09T19:12:44.443Z,10.44
2019-03-09T19:15:14.007Z,10.47
2019-03-09T19:17:43.249Z,10.47
2019-03-09T19:20:13.542Z,10.47
2019-03-09T19:22:42.752Z,10.52
2019-03-09T19:25:12.271Z,10.53
2019-03-09T19:27:41.874Z,10.57
2019-03-09T19:30:12.965Z,10.62
2019-03-09T19:32:42.456Z,10.62
2019-03-09T19:35:11.746Z,10.64
2019-03-09T19:37:40.941Z,10.64
2019-03-09T19:40:14.431Z,10.71
2019-03-09T19:42:43.628Z,10.74
2019-03-09T19:45:13.613Z,10.79
2019-03-09T19:47:43.506Z,10.81
2019-03-09T19:50:17.346Z,10.83
2019-03-09T19:52:46.687Z,10.86
2019-03-09T19:55:16.711Z,10.86
2019-03-09T19:57:47.388Z,10.83
2019-03-09T20:00:18.077Z,10.85
2019-03-09T20:02:51.823Z,10.84
2019-03-09T20:05:22.872Z,10.85
2019-03-09T20:07:53.502Z,10.87
2019-03-09T20:10:30.097Z,10.89
2019-03-09T20:13:02.557Z,10.91
2019-03-09T20:15:32.333Z,10.94
2019-03-09T20:18:02.127Z,11.00
2019-03-09T20:20:50.530Z,11.04
2019-03-09T20:23:19.825Z,11.04
2019-03-09T20:25:50.651Z,11.00
2019-03-09T20:28:19.992Z,11.10
2019-03-09T20:30:49.296Z,11.14
2019-03-09T20:33:19.103Z,11.11
2019-03-09T20:35:52.353Z,11.15
2019-03-09T20:38:21.980Z,11.15
2019-03-09T20:40:54.163Z,11.12
2019-03-09T20:43:25.525Z,11.13
2019-03-09T20:45:55.037Z,11.12
2019-03-09T20:48:24.411Z,11.16
2019-03-09T20:50:53.654Z,11.22
2019-03-09T20:53:24.750Z,11.26
2019-03-09T20:55:54.259Z,11.23
2019-03-09T20:58:23.578Z,11.25
2019-03-09T21:00:52.857Z,11.27
2019-03-09T21:03:23.015Z,11.28
2019-03-09T21:05:53.599Z,11.29
2019-03-09T21:08:23.069Z,11.30
2019-03-09T21:10:52.326Z,11.34
2019-03-09T21:13:23.000Z,11.38
2019-03-09T21:15:53.684Z,11.37
2019-03-09T21:18:43.977Z,11.39
2019-03-09T21:21:10.859Z,11.37
2019-03-09T21:23:40.256Z,11.38
2019-03-09T21:26:09.634Z,11.36
2019-03-09T21:28:38.820Z,11.34
2019-03-09T21:31:08.068Z,11.37
2019-03-09T21:33:40.149Z,11.37
2019-03-09T21:36:09.547Z,11.38
2019-03-09T21:38:40.783Z,11.34
2019-03-09T21:41:10.153Z,11.34
2019-03-09T21:43:39.474Z,11.42
2019-03-09T21:46:09.892Z,11.39
2019-03-09T21:48:39.223Z,11.41
2019-03-09T21:51:08.423Z,11.46
2019-03-09T21:53:40.122Z,11.41
2019-03-09T21:56:09.376Z,11.41
2019-03-09T21:58:38.699Z,11.41
2019-03-09T22:01:08.227Z,11.35
2019-03-09T22:03:39.642Z,11.38
2019-03-09T22:06:09.357Z,11.42
2019-03-09T22:08:45.975Z,11.38
2019-03-09T22:11:12.645Z,11.38
2019-03-09T22:13:42.083Z,11.36
2019-03-09T22:16:13.945Z,11.38
2019-03-09T22:18:45.769Z,11.37
2019-03-09T22:21:14.988Z,11.36
2019-03-09T22:23:44.536Z,11.33
2019-03-09T22:26:14.028Z,11.34
2019-03-09T22:28:43.557Z,11.33
2019-03-09T22:31:12.778Z,11.34
2019-03-09T22:33:42.069Z,11.35
2019-03-09T22:36:11.703Z,11.37
2019-03-09T22:38:41.078Z,11.38
2019-03-09T22:41:10.281Z,11.38
2019-03-09T22:43:39.535Z,11.38
2019-03-09T22:46:09.510Z,11.35
2019-03-09T22:48:38.848Z,11.37
2019-03-09T22:51:08.264Z,11.34
2019-03-09T22:53:37.440Z,11.34
2019-03-09T22:56:06.675Z,11.33
2019-03-09T22:58:35.886Z,11.31
2019-03-09T23:01:05.346Z,11.30
2019-03-09T23:03:34.941Z,11.31
2019-03-09T23:06:04.586Z,11.27
2019-03-09T23:08:33.962Z,11.28
2019-03-09T23:11:03.329Z,11.27
2019-03-09T23:13:32.954Z,11.22
2019-03-09T23:16:02.362Z,11.27
2019-03-09T23:18:31.722Z,11.27
2019-03-09T23:21:01.630Z,11.29
2019-03-09T23:23:30.881Z,11.31
2019-03-09T23:26:00.157Z,11.26
2019-03-09T23:28:42.002Z,11.25
2019-03-09T23:31:11.247Z,11.25
2019-03-09T23:33:40.705Z,11.22
2019-03-09T23:36:10.254Z,11.21
2019-03-09T23:38:39.431Z,11.25
2019-03-09T23:41:08.610Z,11.25
2019-03-09T23:43:38.152Z,11.25
2019-03-09T23:46:07.343Z,11.21
2019-03-09T23:48:36.837Z,11.22
2019-03-09T23:51:06.036Z,11.17
2019-03-09T23:53:35.280Z,11.16
2019-03-09T23:56:04.515Z,11.18
2019-03-09T23:58:33.759Z,11.21
